Friday, November 17, 2017, 2:36 PM EST
Back to Local

KFME, Fort Meade / Tipton

Location: Laurel, MD, United States Lat: 39.083
Local Time: 2:36 PM EST (19:36 GMT) Lon: -76.767
Time Zone: US/Eastern Elev: 150 ft

Show me the last for .
Show Coded

Time T Td Feel RH Dir Speed Gust Alt SLP Vis Weather Sky Remarks
2017-11-17 14:06 52 28 - 40 330° 3 - 30.17 - 10 CLR None
2017-11-17 13:45 52 28 - 40 310° 9 - 30.17 - 10 CLR None
2017-11-17 13:24 52 28 - 40 300° 7 - 30.18 - 10 CLR None
2017-11-17 13:06 50 28 48 43 290° 5 - 30.18 - 10 CLR None
2017-11-17 12:45 50 28 48 43 360° 6 - 30.19 - 10 CLR None
2017-11-17 12:24 50 28 46 43 270° 9 - 30.20 - 10 CLR None
2017-11-17 11:45 50 30 47 46 310° 8 - 30.21 - 10 CLR None
2017-11-17 11:24 48 28 42 45 330° 10 17 30.22 - 10 CLR None
2017-11-17 11:06 48 28 44 45 310° 10 - 30.23 - 10 CLR None
2017-11-17 10:45 46 30 42 52 300° 8 - 30.24 - 10 CLR None
2017-11-17 10:24 46 30 41 52 340° 10 - 30.24 - 10 CLR None
2017-11-17 10:06 46 30 39 52 330° 10 17 30.24 - 10 CLR None
2017-11-17 09:45 45 30 40 56 330° 8 - 30.24 - 10 CLR None
2017-11-17 09:24 45 32 37 61 310° 8 17 30.23 - 10 CLR None
2017-11-17 09:06 43 32 39 65 310° 6 - 30.23 - 10 CLR None
2017-11-17 08:45 43 32 40 65 330° 5 - 30.22 - 10 CLR None
2017-11-17 08:24 41 32 36 70 320° 7 - 30.22 - 10 CLR None
2017-11-17 08:06 39 32 35 75 310° 6 - 30.22 - 10 CLR None
2017-11-17 07:45 36 30 33 80 300° 3 - 30.21 - 10 CLR None
2017-11-17 07:24 36 30 32 80 310° 5 - 30.21 - 10 CLR None
2017-11-17 07:06 36 30 32 80 310° 5 - 30.20 - 10 CLR None
2017-11-17 06:45 34 30 30 86 290° 5 - 30.20 - 10 CLR None
2017-11-17 06:24 34 30 31 86 280° 3 - 30.19 - 10 CLR None
2017-11-17 06:06 34 32 30 93 280° 5 - 30.18 - 10 CLR None
2017-11-17 05:45 34 32 29 93 260° 6 - 30.18 - 10 CLR None
2017-11-17 05:24 36 32 30 86 270° 7 - 30.17 - 10 CLR None
2017-11-17 05:06 36 32 30 86 260° 7 - 30.17 - 10 CLR None
2017-11-17 04:45 36 32 30 86 260° 7 - 30.16 - 10 CLR None
2017-11-17 04:24 36 32 29 86 250° 8 - 30.16 - 10 CLR None
2017-11-17 04:06 36 32 31 86 240° 6 - 30.15 - 10 CLR None
2017-11-17 03:45 37 32 31 80 260° 8 - 30.14 - 10 CLR None
2017-11-17 03:24 37 32 32 80 270° 7 - 30.14 - 10 CLR None
2017-11-17 03:06 37 30 32 74 260° 7 - 30.14 - 10 CLR None
2017-11-17 02:45 39 32 34 75 260° 8 - 30.14 - 10 CLR None
2017-11-17 02:24 41 32 35 70 270° 9 - 30.13 - 10 SCT047 None
2017-11-17 02:06 41 32 36 70 260° 7 - 30.13 - 10 BKN049 None
2017-11-17 01:45 41 32 36 70 260° 8 - 30.13 - 10 BKN049 None
2017-11-17 01:24 41 32 36 70 270° 7 - 30.12 - 10 BKN049 None
2017-11-17 01:06 43 32 39 65 260° 7 - 30.12 - 10 OVC049 None
2017-11-17 00:45 43 32 38 65 270° 8 - 30.12 - 10 BKN049 None
2017-11-17 00:24 43 30 37 60 270° 9 - 30.11 - 10 OVC049 None
2017-11-17 00:06 43 32 39 65 280° 6 - 30.11 - 10 OVC049 None
2017-11-16 23:45 43 32 38 65 270° 8 - 30.11 - 10 OVC049 None
2017-11-16 23:24 43 32 37 65 270° 9 - 30.11 - 10 OVC049 None
2017-11-16 23:06 43 32 39 65 280° 7 - 30.11 - 10 OVC049 None
2017-11-16 22:45 43 32 35 65 270° 9 17 30.11 - 10 OVC049 None
2017-11-16 22:24 43 32 38 65 270° 8 - 30.10 - 10 OVC049 None
2017-11-16 22:06 45 32 40 61 290° 8 - 30.10 - 10 SCT043 OVC049 None
2017-11-16 21:45 45 32 40 61 290° 8 - 30.11 - 10 OVC047 None
2017-11-16 21:24 45 30 37 56 290° 10 16 30.10 - 10 OVC048 None
2017-11-16 21:06 45 32 37 61 300° 12 16 30.10 - 10 OVC046 None
2017-11-16 20:45 45 32 37 61 300° 10 18 30.10 - 10 BKN048 OVC050 None
2017-11-16 20:24 45 32 37 61 310° 13 18 30.10 - 10 OVC055 None
2017-11-16 20:06 45 32 39 61 310° 10 - 30.09 - 10 BKN055 None
2017-11-16 19:45 45 32 37 61 310° 7 16 30.08 - 10 BKN055 None
2017-11-16 19:24 45 32 39 61 300° 10 - 30.08 - 10 BKN055 None
2017-11-16 19:06 46 32 39 56 310° 12 21 30.08 - 10 OVC055 None
2017-11-16 18:45 46 32 39 56 320° 9 21 30.07 - 10 SCT055 None
2017-11-16 18:24 46 32 39 56 320° 9 22 30.05 - 10 CLR None
2017-11-16 18:06 48 32 41 53 320° 8 20 30.03 - 10 CLR None
2017-11-16 17:45 50 32 43 49 300° 9 21 30.01 - 10 CLR None
2017-11-16 17:24 50 32 44 49 300° 12 18 30.00 - 10 CLR None
2017-11-16 17:06 50 32 44 49 300° 12 20 29.99 - 10 CLR None
2017-11-16 16:45 52 32 - 46 300° 9 22 29.98 - 10 CLR None
2017-11-16 16:24 54 32 - 43 300° 13 22 29.97 - 10 CLR None
2017-11-16 16:06 54 34 - 46 300° 14 20 29.95 - 10 CLR None
2017-11-16 15:45 55 34 - 43 310° 14 23 29.95 - 10 SCT065 None
2017-11-16 15:24 57 32 - 38 290° 15 21 29.93 - 10 SCT065 None
2017-11-16 15:06 59 34 - 38 290° 15 - 29.91 - 10 SCT075 None
2017-11-16 14:45 57 34 - 41 280° 14 22 29.90 - 10 SCT075 None

Support USWX by starting your Amazon purchase here.